EKAH

Aarhus Airport

Aarhus, Denmark
TAF EKAH 231711Z 2318/2418 26015KT 9999 SCT030 TEMPO 2320/2401 BKN012 BECMG 2321/2324 21010KT BECMG 2405/2407 4000 -RA BR BKN008 TEMPO 2407/2410 9999 NSW BKN015 BECMG 2410/2412 26020G32KT 9999 NSW SCT030
Issued Valid From Valid To
Apr-23 @ 17:11 UTC
(6 hours ago)
Apr-23 @ 18:00 UTC
(5 hours ago)
Apr-24 @ 18:00 UTC
(in 19 hours)
Expired Click to View Apr-23 @ 18:00 to Apr-23 @ 21:00
TAF EKAH 231711Z 2318/2418 26015KT 9999 SCT030
Wind Visibility Clouds
260° at 15 knots 10,000+ meters
  • Scattered at 3,000' AGL
Temporary Apr-23 @ 20:00 to Apr-24 @ 01:00
TEMPO 2320/2401 BKN012
Clouds
  • Broken at 1,200' AGL
Becoming Apr-23 @ 21:00 to Apr-24 @ 05:00
BECMG 2321/2324 21010KT
Wind Visibility Clouds
210° at 10 knots 10,000+ meters
  • Scattered at 3,000' AGL
Becoming Apr-24 @ 05:00 to Apr-24 @ 10:00
BECMG 2405/2407 4000 -RA BR BKN008
Wind Visibility Clouds Conditions
210° at 10 knots 4,007 meters
  • Broken at 800' AGL
  • Light Rain
  • Mist
Temporary Apr-24 @ 07:00 to Apr-24 @ 10:00
TEMPO 2407/2410 9999 NSW BKN015
Visibility Clouds Conditions
10,000+ meters
  • Broken at 1,500' AGL
Becoming Apr-24 @ 10:00 to Apr-24 @ 18:00
BECMG 2410/2412 26020G32KT 9999 NSW SCT030
Wind Visibility Clouds Conditions
260° at 20 knots
 Gusting to 32 knots
10,000+ meters
  • Scattered at 3,000' AGL
TAF EKAH 231711Z 2318/2418 26015KT 9999 SCT030 TEMPO 2320/2401 BKN012 BECMG 2321/2324 21010KT BECMG 2405/2407 4000 -RA BR BKN008 TEMPO 2407/2410 9999 NSW BKN015 BECMG 2410/2412 26020G32KT 9999 NSW SCT030
Issued Apr-23 @ 17:11 UTC
(6 hours ago)
Valid From Apr-23 @ 18:00 UTC
(5 hours ago)
Valid To Apr-24 @ 18:00 UTC
(in 19 hours)
Apr-23 @ 18:00 - Apr-23 @ 21:00
Wind Visibility
260° at 15 knots 10,000+ meters
Clouds
  • Scattered at 3,000' AGL
Temporary Apr-23 @ 20:00 - Apr-24 @ 01:00
Clouds
  • Broken at 1,200' AGL
Becoming Apr-23 @ 21:00 - Apr-24 @ 05:00
Wind Visibility
210° at 10 knots 10,000+ meters
Clouds
  • Scattered at 3,000' AGL
Becoming Apr-24 @ 05:00 - Apr-24 @ 10:00
Wind Visibility
210° at 10 knots 4,007 meters
Clouds
  • Broken at 800' AGL
Conditions
  • Light Rain
  • Mist
Temporary Apr-24 @ 07:00 - Apr-24 @ 10:00
Clouds
  • Broken at 1,500' AGL
Conditions
Becoming Apr-24 @ 10:00 - Apr-24 @ 18:00
Wind Visibility
260° at 20 knots
 Gusting to 32 knots
10,000+ meters
Clouds
  • Scattered at 3,000' AGL
Conditions